sensor_id;sensor_type;location;lat;lon;timestamp;pressure;altitude;pressure_sealevel;temperature;humidity
77723;BME280;67811;42.656;23.394;2024-01-27T00:02:35;95521.69;;;2.72;63.68
77723;BME280;67811;42.656;23.394;2024-01-27T00:06:40;95506.94;;;2.71;63.51
77723;BME280;67811;42.656;23.394;2024-01-27T00:10:46;95512.34;;;2.79;63.14
77723;BME280;67811;42.656;23.394;2024-01-27T00:14:51;95516.06;;;2.76;62.79
77723;BME280;67811;42.656;23.394;2024-01-27T00:18:56;95511.41;;;2.80;62.95
77723;BME280;67811;42.656;23.394;2024-01-27T00:23:01;95499.28;;;2.79;63.21
77723;BME280;67811;42.656;23.394;2024-01-27T00:27:07;95498.13;;;2.72;62.93
77723;BME280;67811;42.656;23.394;2024-01-27T00:31:12;95503.13;;;2.75;62.73
77723;BME280;67811;42.656;23.394;2024-01-27T00:35:17;95498.44;;;2.78;62.98
77723;BME280;67811;42.656;23.394;2024-01-27T00:39:23;95502.41;;;2.73;63.36
77723;BME280;67811;42.656;23.394;2024-01-27T00:43:28;95504.28;;;2.50;63.57
77723;BME280;67811;42.656;23.394;2024-01-27T00:47:33;95505.34;;;2.26;64.99
77723;BME280;67811;42.656;23.394;2024-01-27T00:51:38;95510.06;;;1.78;66.43
77723;BME280;67811;42.656;23.394;2024-01-27T00:55:44;95514.81;;;1.73;67.12
77723;BME280;67811;42.656;23.394;2024-01-27T00:59:49;95506.75;;;1.31;68.14
77723;BME280;67811;42.656;23.394;2024-01-27T01:03:54;95503.56;;;1.27;69.30
77723;BME280;67811;42.656;23.394;2024-01-27T01:08:00;95502.09;;;1.01;70.11
77723;BME280;67811;42.656;23.394;2024-01-27T01:12:05;95495.44;;;0.86;70.92
77723;BME280;67811;42.656;23.394;2024-01-27T01:16:10;95506.44;;;0.78;71.75
77723;BME280;67811;42.656;23.394;2024-01-27T01:20:16;95501.31;;;0.76;72.51
77723;BME280;67811;42.656;23.394;2024-01-27T01:24:21;95515.81;;;0.81;72.37
77723;BME280;67811;42.656;23.394;2024-01-27T01:28:26;95505.88;;;0.86;71.86
77723;BME280;67811;42.656;23.394;2024-01-27T01:32:32;95491.53;;;0.91;71.55
77723;BME280;67811;42.656;23.394;2024-01-27T01:36:37;95494.00;;;0.93;71.95
77723;BME280;67811;42.656;23.394;2024-01-27T01:40:42;95483.09;;;0.99;71.82
77723;BME280;67811;42.656;23.394;2024-01-27T01:44:47;95483.25;;;1.20;71.14
77723;BME280;67811;42.656;23.394;2024-01-27T01:48:53;95481.72;;;1.17;70.99
77723;BME280;67811;42.656;23.394;2024-01-27T01:52:59;95478.38;;;1.15;70.57
77723;BME280;67811;42.656;23.394;2024-01-27T01:57:04;95468.19;;;1.01;71.00
77723;BME280;67811;42.656;23.394;2024-01-27T02:01:10;95478.38;;;1.04;71.51
77723;BME280;67811;42.656;23.394;2024-01-27T02:05:15;95475.06;;;1.13;70.66
77723;BME280;67811;42.656;23.394;2024-01-27T02:09:20;95465.44;;;1.02;71.40
77723;BME280;67811;42.656;23.394;2024-01-27T02:13:26;95458.69;;;1.00;71.56
77723;BME280;67811;42.656;23.394;2024-01-27T02:17:31;95444.69;;;1.01;71.52
77723;BME280;67811;42.656;23.394;2024-01-27T02:21:36;95441.00;;;0.92;71.32
77723;BME280;67811;42.656;23.394;2024-01-27T02:25:42;95455.69;;;0.82;72.30
77723;BME280;67811;42.656;23.394;2024-01-27T02:29:47;95454.88;;;0.82;73.86
77723;BME280;67811;42.656;23.394;2024-01-27T02:33:52;95453.56;;;0.98;72.68
77723;BME280;67811;42.656;23.394;2024-01-27T02:37:57;95451.09;;;1.08;72.64
77723;BME280;67811;42.656;23.394;2024-01-27T02:42:03;95458.22;;;1.06;72.39
77723;BME280;67811;42.656;23.394;2024-01-27T02:46:11;95467.22;;;1.02;72.52
77723;BME280;67811;42.656;23.394;2024-01-27T02:50:16;95446.47;;;1.12;72.34
77723;BME280;67811;42.656;23.394;2024-01-27T02:54:22;95441.84;;;1.04;72.59
77723;BME280;67811;42.656;23.394;2024-01-27T02:58:27;95447.06;;;1.04;72.81
77723;BME280;67811;42.656;23.394;2024-01-27T03:02:32;95446.56;;;0.99;72.99
77723;BME280;67811;42.656;23.394;2024-01-27T03:06:37;95456.44;;;0.95;73.42
77723;BME280;67811;42.656;23.394;2024-01-27T03:10:43;95477.63;;;0.79;74.08
77723;BME280;67811;42.656;23.394;2024-01-27T03:14:48;95470.97;;;0.75;74.71
77723;BME280;67811;42.656;23.394;2024-01-27T03:18:54;95465.91;;;0.85;74.10
77723;BME280;67811;42.656;23.394;2024-01-27T03:22:59;95455.69;;;0.82;74.44
77723;BME280;67811;42.656;23.394;2024-01-27T03:27:04;95452.66;;;0.99;74.47
77723;BME280;67811;42.656;23.394;2024-01-27T03:31:09;95456.66;;;1.03;73.75
77723;BME280;67811;42.656;23.394;2024-01-27T03:35:15;95456.31;;;1.19;73.56
77723;BME280;67811;42.656;23.394;2024-01-27T03:39:20;95455.97;;;1.46;72.48
77723;BME280;67811;42.656;23.394;2024-01-27T03:43:25;95444.31;;;1.62;71.68
77723;BME280;67811;42.656;23.394;2024-01-27T03:47:31;95441.69;;;1.62;72.82
77723;BME280;67811;42.656;23.394;2024-01-27T03:51:36;95432.28;;;1.81;72.13
77723;BME280;67811;42.656;23.394;2024-01-27T03:55:41;95421.84;;;1.70;72.90
77723;BME280;67811;42.656;23.394;2024-01-27T03:59:47;95437.44;;;1.49;76.13
77723;BME280;67811;42.656;23.394;2024-01-27T04:03:52;95435.38;;;1.75;76.27
77723;BME280;67811;42.656;23.394;2024-01-27T04:07:57;95426.53;;;1.99;74.72
77723;BME280;67811;42.656;23.394;2024-01-27T04:12:02;95435.28;;;2.09;75.77
77723;BME280;67811;42.656;23.394;2024-01-27T04:16:08;95430.78;;;2.32;75.46
77723;BME280;67811;42.656;23.394;2024-01-27T04:20:13;95423.41;;;2.37;75.43
77723;BME280;67811;42.656;23.394;2024-01-27T04:24:18;95406.31;;;2.54;76.69
77723;BME280;67811;42.656;23.394;2024-01-27T04:28:24;95413.19;;;2.76;76.82
77723;BME280;67811;42.656;23.394;2024-01-27T04:32:29;95420.16;;;2.96;75.89
77723;BME280;67811;42.656;23.394;2024-01-27T04:36:34;95416.41;;;3.10;75.63
77723;BME280;67811;42.656;23.394;2024-01-27T04:40:40;95416.41;;;3.10;75.40
77723;BME280;67811;42.656;23.394;2024-01-27T04:44:45;95423.47;;;3.19;75.73
77723;BME280;67811;42.656;23.394;2024-01-27T04:48:50;95421.84;;;3.28;75.20
77723;BME280;67811;42.656;23.394;2024-01-27T04:52:55;95409.72;;;3.27;75.43
77723;BME280;67811;42.656;23.394;2024-01-27T04:57:01;95426.63;;;3.23;74.99
77723;BME280;67811;42.656;23.394;2024-01-27T05:01:06;95422.41;;;3.31;74.69
77723;BME280;67811;42.656;23.394;2024-01-27T05:05:12;95427.78;;;3.30;76.05
77723;BME280;67811;42.656;23.394;2024-01-27T05:09:17;95440.88;;;3.30;77.06
77723;BME280;67811;42.656;23.394;2024-01-27T05:13:22;95445.50;;;3.16;77.59
77723;BME280;67811;42.656;23.394;2024-01-27T05:17:28;95440.84;;;3.20;77.96
77723;BME280;67811;42.656;23.394;2024-01-27T05:21:33;95447.81;;;3.10;77.85
77723;BME280;67811;42.656;23.394;2024-01-27T05:25:38;95449.59;;;3.09;78.34
77723;BME280;67811;42.656;23.394;2024-01-27T05:29:44;95433.47;;;3.04;79.98
77723;BME280;67811;42.656;23.394;2024-01-27T05:33:49;95448.63;;;3.10;80.05
77723;BME280;67811;42.656;23.394;2024-01-27T05:37:54;95438.84;;;3.12;79.75
77723;BME280;67811;42.656;23.394;2024-01-27T05:41:59;95435.31;;;3.13;80.18
77723;BME280;67811;42.656;23.394;2024-01-27T05:46:05;95442.88;;;3.16;79.66
77723;BME280;67811;42.656;23.394;2024-01-27T05:50:10;95447.13;;;3.08;80.65
77723;BME280;67811;42.656;23.394;2024-01-27T05:54:15;95458.75;;;2.94;81.17
77723;BME280;67811;42.656;23.394;2024-01-27T05:58:21;95454.53;;;3.03;80.62
77723;BME280;67811;42.656;23.394;2024-01-27T06:02:26;95462.72;;;2.88;81.58
77723;BME280;67811;42.656;23.394;2024-01-27T06:06:31;95460.25;;;2.97;81.02
77723;BME280;67811;42.656;23.394;2024-01-27T06:10:36;95460.22;;;2.87;82.56
77723;BME280;67811;42.656;23.394;2024-01-27T06:14:42;95477.50;;;2.78;83.18
77723;BME280;67811;42.656;23.394;2024-01-27T06:18:47;95470.81;;;2.85;83.34
77723;BME280;67811;42.656;23.394;2024-01-27T06:22:52;95489.25;;;2.84;83.21
77723;BME280;67811;42.656;23.394;2024-01-27T06:26:58;95496.50;;;2.92;83.39
77723;BME280;67811;42.656;23.394;2024-01-27T06:31:04;95487.16;;;2.78;83.94
77723;BME280;67811;42.656;23.394;2024-01-27T06:35:09;95496.34;;;2.93;83.73
77723;BME280;67811;42.656;23.394;2024-01-27T06:39:15;95496.66;;;2.79;84.76
77723;BME280;67811;42.656;23.394;2024-01-27T06:43:20;95499.28;;;2.79;86.29
77723;BME280;67811;42.656;23.394;2024-01-27T06:47:25;95496.16;;;2.85;85.50
77723;BME280;67811;42.656;23.394;2024-01-27T06:51:30;95510.06;;;3.06;84.90
77723;BME280;67811;42.656;23.394;2024-01-27T06:55:36;95515.59;;;3.34;84.39
77723;BME280;67811;42.656;23.394;2024-01-27T06:59:41;95498.50;;;3.60;82.61
77723;BME280;67811;42.656;23.394;2024-01-27T07:03:46;95495.66;;;3.83;81.05
77723;BME280;67811;42.656;23.394;2024-01-27T07:07:51;95496.38;;;3.94;79.93
77723;BME280;67811;42.656;23.394;2024-01-27T07:11:57;95480.84;;;4.12;79.00
77723;BME280;67811;42.656;23.394;2024-01-27T07:16:02;95466.78;;;4.33;76.89
77723;BME280;67811;42.656;23.394;2024-01-27T07:20:08;95471.78;;;4.45;75.23
77723;BME280;67811;42.656;23.394;2024-01-27T07:24:13;95486.41;;;4.48;73.82
77723;BME280;67811;42.656;23.394;2024-01-27T07:28:19;95486.00;;;4.53;73.87
77723;BME280;67811;42.656;23.394;2024-01-27T07:32:24;95502.16;;;4.48;72.87
77723;BME280;67811;42.656;23.394;2024-01-27T07:36:29;95508.50;;;4.45;73.10
77723;BME280;67811;42.656;23.394;2024-01-27T07:40:35;95523.53;;;4.43;73.36
77723;BME280;67811;42.656;23.394;2024-01-27T07:44:40;95534.59;;;4.37;72.38
77723;BME280;67811;42.656;23.394;2024-01-27T07:48:45;95554.59;;;4.38;71.08
77723;BME280;67811;42.656;23.394;2024-01-27T07:52:50;95537.06;;;4.29;70.94
77723;BME280;67811;42.656;23.394;2024-01-27T07:56:56;95526.16;;;4.43;69.72
77723;BME280;67811;42.656;23.394;2024-01-27T08:01:01;95564.25;;;4.28;69.87
77723;BME280;67811;42.656;23.394;2024-01-27T08:05:06;95562.16;;;4.22;68.90
77723;BME280;67811;42.656;23.394;2024-01-27T08:09:12;95550.69;;;4.13;69.26
77723;BME280;67811;42.656;23.394;2024-01-27T08:13:17;95533.84;;;4.16;68.60
77723;BME280;67811;42.656;23.394;2024-01-27T08:17:22;95549.31;;;4.19;68.69
77723;BME280;67811;42.656;23.394;2024-01-27T08:21:28;95562.72;;;4.26;68.99
77723;BME280;67811;42.656;23.394;2024-01-27T08:25:33;95514.28;;;4.30;68.91
77723;BME280;67811;42.656;23.394;2024-01-27T08:29:38;95539.28;;;4.43;68.38
77723;BME280;67811;42.656;23.394;2024-01-27T08:33:45;95506.00;;;4.44;67.74
77723;BME280;67811;42.656;23.394;2024-01-27T08:37:50;95531.88;;;6.00;63.13
77723;BME280;67811;42.656;23.394;2024-01-27T08:41:55;95528.56;;;5.61;62.12
77723;BME280;67811;42.656;23.394;2024-01-27T08:46:01;95479.91;;;6.30;60.22
77723;BME280;67811;42.656;23.394;2024-01-27T08:50:06;95504.56;;;6.11;60.31
77723;BME280;67811;42.656;23.394;2024-01-27T08:54:12;95495.81;;;6.38;59.27
77723;BME280;67811;42.656;23.394;2024-01-27T08:58:17;95504.38;;;7.37;56.40
77723;BME280;67811;42.656;23.394;2024-01-27T09:02:22;95486.06;;;7.62;55.33
77723;BME280;67811;42.656;23.394;2024-01-27T09:06:27;95486.78;;;7.72;54.43
77723;BME280;67811;42.656;23.394;2024-01-27T09:10:33;95475.25;;;8.15;53.53
77723;BME280;67811;42.656;23.394;2024-01-27T09:14:38;95491.69;;;8.43;52.15
77723;BME280;67811;42.656;23.394;2024-01-27T09:18:43;95484.13;;;8.49;51.86
77723;BME280;67811;42.656;23.394;2024-01-27T09:22:49;95491.03;;;8.41;51.27
77723;BME280;67811;42.656;23.394;2024-01-27T09:26:54;95473.19;;;7.93;52.26
77723;BME280;67811;42.656;23.394;2024-01-27T09:30:59;95504.28;;;8.15;52.54
77723;BME280;67811;42.656;23.394;2024-01-27T09:35:05;95489.78;;;8.86;50.76
77723;BME280;67811;42.656;23.394;2024-01-27T09:39:10;95510.28;;;8.92;49.99
77723;BME280;67811;42.656;23.394;2024-01-27T09:43:16;95505.78;;;8.68;50.11
77723;BME280;67811;42.656;23.394;2024-01-27T09:47:23;95528.59;;;8.27;51.22
77723;BME280;67811;42.656;23.394;2024-01-27T09:51:28;95554.63;;;7.62;53.12
77723;BME280;67811;42.656;23.394;2024-01-27T09:55:33;95541.88;;;7.05;54.88
77723;BME280;67811;42.656;23.394;2024-01-27T09:59:40;95567.47;;;6.32;57.35
77723;BME280;67811;42.656;23.394;2024-01-27T10:03:46;95568.88;;;5.89;58.53
77723;BME280;67811;42.656;23.394;2024-01-27T10:07:52;95560.97;;;5.99;58.43
77723;BME280;67811;42.656;23.394;2024-01-27T10:12:00;95558.38;;;6.44;57.26
77723;BME280;67811;42.656;23.394;2024-01-27T10:16:07;95567.31;;;6.33;57.46
77723;BME280;67811;42.656;23.394;2024-01-27T10:20:13;95526.06;;;5.97;58.84
77723;BME280;67811;42.656;23.394;2024-01-27T10:24:18;95559.59;;;6.50;57.87
77723;BME280;67811;42.656;23.394;2024-01-27T10:28:23;95581.84;;;6.10;57.74
77723;BME280;67811;42.656;23.394;2024-01-27T10:32:28;95556.69;;;5.88;59.34
77723;BME280;67811;42.656;23.394;2024-01-27T10:36:44;95572.03;;;5.26;61.10
77723;BME280;67811;42.656;23.394;2024-01-27T10:40:49;95575.13;;;5.22;61.31
77723;BME280;67811;42.656;23.394;2024-01-27T10:44:57;95558.50;;;5.31;64.95
77723;BME280;67811;42.656;23.394;2024-01-27T10:49:04;95586.16;;;5.82;60.54
77723;BME280;67811;42.656;23.394;2024-01-27T10:53:22;95599.81;;;5.48;60.89
77723;BME280;67811;42.656;23.394;2024-01-27T10:57:29;95590.28;;;5.38;61.70
77723;BME280;67811;42.656;23.394;2024-01-27T11:01:36;95603.03;;;5.23;62.04
77723;BME280;67811;42.656;23.394;2024-01-27T11:05:43;95587.16;;;4.95;63.02
77723;BME280;67811;42.656;23.394;2024-01-27T11:09:50;95618.25;;;4.90;63.48
77723;BME280;67811;42.656;23.394;2024-01-27T11:13:55;95632.19;;;4.91;64.23
77723;BME280;67811;42.656;23.394;2024-01-27T11:18:00;95612.94;;;4.71;64.98
77723;BME280;67811;42.656;23.394;2024-01-27T11:22:06;95627.13;;;4.49;66.39
77723;BME280;67811;42.656;23.394;2024-01-27T11:26:17;95634.03;;;4.50;66.54
77723;BME280;67811;42.656;23.394;2024-01-27T11:30:28;95646.22;;;4.51;66.31
77723;BME280;67811;42.656;23.394;2024-01-27T11:34:52;95662.47;;;4.45;66.61
77723;BME280;67811;42.656;23.394;2024-01-27T11:38:57;95628.75;;;4.31;66.96
77723;BME280;67811;42.656;23.394;2024-01-27T11:43:03;95659.19;;;4.12;67.18
77723;BME280;67811;42.656;23.394;2024-01-27T11:47:18;95649.19;;;4.06;68.01
77723;BME280;67811;42.656;23.394;2024-01-27T11:51:24;95655.09;;;3.99;67.90
77723;BME280;67811;42.656;23.394;2024-01-27T11:55:30;95663.41;;;4.04;67.56
77723;BME280;67811;42.656;23.394;2024-01-27T11:59:35;95676.53;;;4.04;67.30
77723;BME280;67811;42.656;23.394;2024-01-27T12:03:40;95659.88;;;4.14;66.18
77723;BME280;67811;42.656;23.394;2024-01-27T12:07:46;95663.91;;;4.18;66.00
77723;BME280;67811;42.656;23.394;2024-01-27T12:11:51;95666.44;;;4.30;65.06
77723;BME280;67811;42.656;23.394;2024-01-27T12:15:56;95668.56;;;4.45;63.86
77723;BME280;67811;42.656;23.394;2024-01-27T12:20:14;95682.94;;;4.51;63.44
77723;BME280;67811;42.656;23.394;2024-01-27T12:24:19;95671.28;;;4.74;62.67
77723;BME280;67811;42.656;23.394;2024-01-27T12:28:25;95666.94;;;5.23;61.05
77723;BME280;67811;42.656;23.394;2024-01-27T12:32:30;95646.44;;;5.56;59.16
77723;BME280;67811;42.656;23.394;2024-01-27T12:36:43;95664.34;;;6.09;57.69
77723;BME280;67811;42.656;23.394;2024-01-27T12:40:48;95639.22;;;6.24;56.49
77723;BME280;67811;42.656;23.394;2024-01-27T12:44:53;95655.56;;;6.28;56.33
77723;BME280;67811;42.656;23.394;2024-01-27T12:48:59;95668.53;;;6.49;55.68
77723;BME280;67811;42.656;23.394;2024-01-27T12:53:04;95676.97;;;6.43;55.51
77723;BME280;67811;42.656;23.394;2024-01-27T12:57:09;95680.09;;;6.28;56.14
77723;BME280;67811;42.656;23.394;2024-01-27T13:01:15;95675.53;;;6.21;56.27
77723;BME280;67811;42.656;23.394;2024-01-27T13:05:20;95696.09;;;6.45;55.65
77723;BME280;67811;42.656;23.394;2024-01-27T13:09:25;95696.00;;;6.64;54.76
77723;BME280;67811;42.656;23.394;2024-01-27T13:13:31;95702.91;;;6.38;53.89
77723;BME280;67811;42.656;23.394;2024-01-27T13:17:36;95693.34;;;6.37;52.42
77723;BME280;67811;42.656;23.394;2024-01-27T13:21:41;95711.66;;;6.38;52.71
77723;BME280;67811;42.656;23.394;2024-01-27T13:25:47;95704.84;;;6.36;51.60
77723;BME280;67811;42.656;23.394;2024-01-27T13:29:52;95711.47;;;6.49;56.06
77723;BME280;67811;42.656;23.394;2024-01-27T13:33:57;95707.81;;;6.60;51.02
77723;BME280;67811;42.656;23.394;2024-01-27T13:38:03;95705.16;;;6.23;51.66
77723;BME280;67811;42.656;23.394;2024-01-27T13:42:08;95721.41;;;5.60;52.36
77723;BME280;67811;42.656;23.394;2024-01-27T13:46:13;95709.66;;;5.54;50.92
77723;BME280;67811;42.656;23.394;2024-01-27T13:50:19;95732.50;;;5.83;50.16
77723;BME280;67811;42.656;23.394;2024-01-27T13:54:24;95731.78;;;5.81;50.61
77723;BME280;67811;42.656;23.394;2024-01-27T13:58:29;95713.38;;;6.10;49.57
77723;BME280;67811;42.656;23.394;2024-01-27T14:02:35;95722.38;;;5.59;50.00
77723;BME280;67811;42.656;23.394;2024-01-27T14:06:40;95735.75;;;5.08;52.35
77723;BME280;67811;42.656;23.394;2024-01-27T14:10:45;95747.88;;;4.99;52.80
77723;BME280;67811;42.656;23.394;2024-01-27T14:14:50;95737.63;;;4.86;53.27
77723;BME280;67811;42.656;23.394;2024-01-27T14:18:56;95723.44;;;4.58;53.48
77723;BME280;67811;42.656;23.394;2024-01-27T14:23:01;95707.66;;;4.48;54.45
77723;BME280;67811;42.656;23.394;2024-01-27T14:27:08;95730.00;;;4.43;54.23
77723;BME280;67811;42.656;23.394;2024-01-27T14:31:13;95731.59;;;4.25;54.77
77723;BME280;67811;42.656;23.394;2024-01-27T14:35:18;95723.06;;;4.11;55.25
77723;BME280;67811;42.656;23.394;2024-01-27T14:39:23;95745.00;;;4.10;54.83
77723;BME280;67811;42.656;23.394;2024-01-27T14:43:29;95754.22;;;4.05;55.28
77723;BME280;67811;42.656;23.394;2024-01-27T14:47:34;95762.81;;;4.07;55.09
77723;BME280;67811;42.656;23.394;2024-01-27T14:51:39;95764.41;;;3.98;56.16
77723;BME280;67811;42.656;23.394;2024-01-27T14:55:45;95779.81;;;3.91;56.07
77723;BME280;67811;42.656;23.394;2024-01-27T14:59:50;95774.25;;;3.85;55.85
77723;BME280;67811;42.656;23.394;2024-01-27T15:03:55;95786.13;;;3.89;56.01
77723;BME280;67811;42.656;23.394;2024-01-27T15:08:01;95813.00;;;3.81;56.03
77723;BME280;67811;42.656;23.394;2024-01-27T15:12:06;95798.53;;;3.87;56.17
77723;BME280;67811;42.656;23.394;2024-01-27T15:16:12;95812.34;;;3.89;56.16
77723;BME280;67811;42.656;23.394;2024-01-27T15:20:17;95825.41;;;3.79;56.38
77723;BME280;67811;42.656;23.394;2024-01-27T15:24:22;95826.31;;;3.78;56.52
77723;BME280;67811;42.656;23.394;2024-01-27T15:28:27;95838.88;;;3.75;57.16
77723;BME280;67811;42.656;23.394;2024-01-27T15:32:33;95831.84;;;3.75;57.09
77723;BME280;67811;42.656;23.394;2024-01-27T15:36:38;95846.97;;;3.72;57.55
77723;BME280;67811;42.656;23.394;2024-01-27T15:40:43;95851.06;;;3.64;57.52
77723;BME280;67811;42.656;23.394;2024-01-27T15:44:49;95861.31;;;3.56;57.86
77723;BME280;67811;42.656;23.394;2024-01-27T15:48:54;95862.38;;;3.65;57.61
77723;BME280;67811;42.656;23.394;2024-01-27T15:52:59;95856.88;;;3.57;57.50
77723;BME280;67811;42.656;23.394;2024-01-27T15:57:04;95847.72;;;3.51;57.58
77723;BME280;67811;42.656;23.394;2024-01-27T16:01:10;95845.47;;;3.58;57.36
77723;BME280;67811;42.656;23.394;2024-01-27T16:05:17;95846.41;;;3.57;56.98
77723;BME280;67811;42.656;23.394;2024-01-27T16:09:22;95852.63;;;3.56;56.41
77723;BME280;67811;42.656;23.394;2024-01-27T16:13:27;95845.25;;;3.50;56.76
77723;BME280;67811;42.656;23.394;2024-01-27T16:17:33;95858.00;;;3.43;55.85
77723;BME280;67811;42.656;23.394;2024-01-27T16:21:38;95871.34;;;3.40;55.95
77723;BME280;67811;42.656;23.394;2024-01-27T16:25:43;95869.09;;;3.35;55.46
77723;BME280;67811;42.656;23.394;2024-01-27T16:29:49;95866.72;;;3.32;55.31
77723;BME280;67811;42.656;23.394;2024-01-27T16:33:54;95876.13;;;3.24;54.96
77723;BME280;67811;42.656;23.394;2024-01-27T16:37:59;95884.09;;;3.22;55.26
77723;BME280;67811;42.656;23.394;2024-01-27T16:42:04;95897.06;;;3.24;55.21
77723;BME280;67811;42.656;23.394;2024-01-27T16:46:10;95895.66;;;3.20;55.34
77723;BME280;67811;42.656;23.394;2024-01-27T16:50:15;95893.03;;;3.20;54.90
77723;BME280;67811;42.656;23.394;2024-01-27T16:54:21;95898.03;;;3.23;55.04
77723;BME280;67811;42.656;23.394;2024-01-27T16:58:26;95897.56;;;3.17;54.97
77723;BME280;67811;42.656;23.394;2024-01-27T17:02:31;95898.38;;;3.18;54.65
77723;BME280;67811;42.656;23.394;2024-01-27T17:06:37;95894.59;;;3.11;55.40
77723;BME280;67811;42.656;23.394;2024-01-27T17:10:42;95885.19;;;3.08;55.50
77723;BME280;67811;42.656;23.394;2024-01-27T17:14:47;95890.31;;;2.99;55.50
77723;BME280;67811;42.656;23.394;2024-01-27T17:18:52;95893.63;;;3.01;56.27
77723;BME280;67811;42.656;23.394;2024-01-27T17:22:58;95894.72;;;3.09;58.93
77723;BME280;67811;42.656;23.394;2024-01-27T17:27:03;95890.16;;;3.45;57.56
77723;BME280;67811;42.656;23.394;2024-01-27T17:31:09;95899.22;;;3.18;55.37
77723;BME280;67811;42.656;23.394;2024-01-27T17:35:14;95912.91;;;3.00;55.70
77723;BME280;67811;42.656;23.394;2024-01-27T17:39:19;95916.84;;;2.94;56.12
77723;BME280;67811;42.656;23.394;2024-01-27T17:43:25;95931.84;;;3.03;56.07
77723;BME280;67811;42.656;23.394;2024-01-27T17:47:30;95933.72;;;3.01;55.68
77723;BME280;67811;42.656;23.394;2024-01-27T17:51:36;95940.03;;;2.99;55.82
77723;BME280;67811;42.656;23.394;2024-01-27T17:55:42;95934.06;;;2.97;55.62
77723;BME280;67811;42.656;23.394;2024-01-27T17:59:48;95946.94;;;3.11;55.62
77723;BME280;67811;42.656;23.394;2024-01-27T18:03:53;95954.19;;;3.07;55.60
77723;BME280;67811;42.656;23.394;2024-01-27T18:07:58;95953.38;;;3.07;55.19
77723;BME280;67811;42.656;23.394;2024-01-27T18:12:04;95955.50;;;3.02;55.77
77723;BME280;67811;42.656;23.394;2024-01-27T18:16:09;95946.59;;;2.93;55.66
77723;BME280;67811;42.656;23.394;2024-01-27T18:20:14;95945.84;;;2.91;55.55
77723;BME280;67811;42.656;23.394;2024-01-27T18:24:20;95937.16;;;2.90;56.08
77723;BME280;67811;42.656;23.394;2024-01-27T18:28:25;95944.44;;;2.87;56.52
77723;BME280;67811;42.656;23.394;2024-01-27T18:32:30;95945.41;;;2.86;56.20
77723;BME280;67811;42.656;23.394;2024-01-27T18:36:35;95945.16;;;2.89;56.28
77723;BME280;67811;42.656;23.394;2024-01-27T18:40:41;95950.16;;;2.92;56.00
77723;BME280;67811;42.656;23.394;2024-01-27T18:44:46;95944.91;;;2.92;55.98
77723;BME280;67811;42.656;23.394;2024-01-27T18:48:51;95935.50;;;2.89;56.69
77723;BME280;67811;42.656;23.394;2024-01-27T18:52:56;95949.06;;;2.95;55.98
77723;BME280;67811;42.656;23.394;2024-01-27T18:57:02;95948.25;;;2.94;56.24
77723;BME280;67811;42.656;23.394;2024-01-27T19:01:07;95937.91;;;2.93;55.67
77723;BME280;67811;42.656;23.394;2024-01-27T19:05:13;95943.69;;;2.85;56.44
77723;BME280;67811;42.656;23.394;2024-01-27T19:09:18;95944.31;;;2.88;56.53
77723;BME280;67811;42.656;23.394;2024-01-27T19:13:23;95953.13;;;2.87;56.47
77723;BME280;67811;42.656;23.394;2024-01-27T19:17:28;95941.09;;;2.85;56.88
77723;BME280;67811;42.656;23.394;2024-01-27T19:21:34;95946.44;;;2.83;56.63
77723;BME280;67811;42.656;23.394;2024-01-27T19:25:39;95934.31;;;2.82;56.95
77723;BME280;67811;42.656;23.394;2024-01-27T19:29:45;95940.13;;;2.75;56.26
77723;BME280;67811;42.656;23.394;2024-01-27T19:33:50;95948.00;;;2.75;56.13
77723;BME280;67811;42.656;23.394;2024-01-27T19:37:55;95946.91;;;2.77;57.15
77723;BME280;67811;42.656;23.394;2024-01-27T19:42:00;95945.81;;;2.80;56.37
77723;BME280;67811;42.656;23.394;2024-01-27T19:46:08;95956.75;;;2.74;55.83
77723;BME280;67811;42.656;23.394;2024-01-27T19:50:14;95959.28;;;2.75;56.06
77723;BME280;67811;42.656;23.394;2024-01-27T19:54:19;95960.34;;;2.73;56.10
77723;BME280;67811;42.656;23.394;2024-01-27T19:58:24;95969.97;;;2.72;57.19
77723;BME280;67811;42.656;23.394;2024-01-27T20:02:30;95967.47;;;2.71;57.18
77723;BME280;67811;42.656;23.394;2024-01-27T20:06:35;95969.97;;;2.72;57.37
77723;BME280;67811;42.656;23.394;2024-01-27T20:10:40;95970.94;;;2.71;57.10
77723;BME280;67811;42.656;23.394;2024-01-27T20:14:45;95968.31;;;2.71;57.10
77723;BME280;67811;42.656;23.394;2024-01-27T20:18:51;95979.47;;;2.73;56.45
77723;BME280;67811;42.656;23.394;2024-01-27T20:22:56;95973.19;;;2.64;55.96
77723;BME280;67811;42.656;23.394;2024-01-27T20:27:01;95975.28;;;2.59;55.87
77723;BME280;67811;42.656;23.394;2024-01-27T20:31:07;95982.19;;;2.60;55.49
77723;BME280;67811;42.656;23.394;2024-01-27T20:35:12;95980.88;;;2.55;55.93
77723;BME280;67811;42.656;23.394;2024-01-27T20:39:17;95985.63;;;2.61;56.04
77723;BME280;67811;42.656;23.394;2024-01-27T20:43:23;95981.34;;;2.60;55.70
77723;BME280;67811;42.656;23.394;2024-01-27T20:47:28;95990.16;;;2.59;56.03
77723;BME280;67811;42.656;23.394;2024-01-27T20:51:33;95989.53;;;2.55;56.30
77723;BME280;67811;42.656;23.394;2024-01-27T20:55:39;95982.31;;;2.59;56.38
77723;BME280;67811;42.656;23.394;2024-01-27T20:59:45;95982.03;;;2.51;56.54
77723;BME280;67811;42.656;23.394;2024-01-27T21:03:50;95972.53;;;2.50;56.73
77723;BME280;67811;42.656;23.394;2024-01-27T21:07:55;95961.94;;;2.51;56.95
77723;BME280;67811;42.656;23.394;2024-01-27T21:12:01;95973.56;;;2.47;57.06
77723;BME280;67811;42.656;23.394;2024-01-27T21:16:06;95981.31;;;2.49;57.11
77723;BME280;67811;42.656;23.394;2024-01-27T21:20:12;95979.28;;;2.52;57.22
77723;BME280;67811;42.656;23.394;2024-01-27T21:24:17;95977.88;;;2.48;57.62
77723;BME280;67811;42.656;23.394;2024-01-27T21:28:23;95978.91;;;2.46;58.06
77723;BME280;67811;42.656;23.394;2024-01-27T21:32:28;95984.97;;;2.46;58.55
77723;BME280;67811;42.656;23.394;2024-01-27T21:36:33;95996.41;;;2.45;58.25
77723;BME280;67811;42.656;23.394;2024-01-27T21:40:39;96013.66;;;2.48;58.76